Time;durP1;ratioP1;P1;durP2;ratioP2;P2;SDS_P1;SDS_P2;PMS_P1;PMS_P2;Temp;Humidity;BMP_temperature;BMP_pressure;BME280_temperature;BME280_humidity;BME280_pressure;Samples;Min_cycle;Max_cycle;Signal;HPM_P1;HPM_P2
2021/08/01 00:00:34;;;;;;;3.15;2.13;;;19.70;61.80;;;;;;5068018;28;20525;-80
2021/08/01 00:03:00;;;;;;;3.35;2.00;;;19.60;61.70;;;;;;5067742;28;20075;-81
2021/08/01 00:05:26;;;;;;;2.72;1.92;;;19.60;61.80;;;;;;5067841;28;20056;-79
2021/08/01 00:07:52;;;;;;;4.40;2.33;;;19.60;61.90;;;;;;5066390;28;20472;-81
2021/08/01 00:10:18;;;;;;;3.53;1.80;;;19.50;61.70;;;;;;5067657;28;20502;-79
2021/08/01 00:12:44;;;;;;;2.58;1.92;;;19.50;61.80;;;;;;5065809;28;20032;-79
2021/08/01 00:15:12;;;;;;;3.83;2.15;;;19.50;61.90;;;;;;5067765;28;20043;-79
2021/08/01 00:17:38;;;;;;;2.58;1.92;;;19.50;62.00;;;;;;5067268;28;20028;-80
2021/08/01 00:20:05;;;;;;;2.85;2.25;;;19.40;61.90;;;;;;5066656;28;20503;-80
2021/08/01 00:22:31;;;;;;;3.60;2.10;;;19.40;62.00;;;;;;5067386;28;20278;-80
2021/08/01 00:24:57;;;;;;;3.35;2.17;;;19.40;62.00;;;;;;5067162;28;20487;-81
2021/08/01 00:27:23;;;;;;;2.72;1.90;;;19.40;62.10;;;;;;5066963;28;20036;-81
2021/08/01 00:29:50;;;;;;;4.35;2.45;;;19.30;62.00;;;;;;5067137;28;20082;-80
2021/08/01 00:32:16;;;;;;;4.22;2.13;;;19.30;62.10;;;;;;5065932;28;20399;-80
2021/08/01 00:34:42;;;;;;;3.35;1.70;;;19.30;62.10;;;;;;5066609;28;20042;-80
2021/08/01 00:37:07;;;;;;;3.25;2.13;;;19.30;62.30;;;;;;5066414;28;20480;-81
2021/08/01 00:39:34;;;;;;;3.08;2.03;;;19.30;62.30;;;;;;5065913;28;20086;-80
2021/08/01 00:42:00;;;;;;;4.65;2.00;;;19.30;62.30;;;;;;5063478;28;20044;-79
2021/08/01 00:44:27;;;;;;;2.85;1.52;;;19.20;62.20;;;;;;5061518;28;20115;-80
2021/08/01 00:46:53;;;;;;;2.80;1.67;;;19.20;62.30;;;;;;5066742;28;20065;-80
2021/08/01 00:49:19;;;;;;;3.55;2.05;;;19.20;62.40;;;;;;5066105;28;20116;-80
2021/08/01 00:51:45;;;;;;;3.33;1.95;;;19.20;62.40;;;;;;5048571;28;20028;-80
2021/08/01 00:54:12;;;;;;;2.33;1.88;;;19.10;62.30;;;;;;5049903;28;20392;-80
2021/08/01 00:56:38;;;;;;;3.50;2.42;;;19.10;62.40;;;;;;5048978;28;20149;-79
2021/08/01 00:59:05;;;;;;;3.75;2.28;;;19.10;62.50;;;;;;5065670;28;20437;-78
2021/08/01 01:01:42;;;;;;;3.03;2.10;;;19.10;62.50;;;;;;5065820;28;20036;-80
2021/08/01 01:04:14;;;;;;;4.38;2.22;;;19.10;62.70;;;;;;5045487;28;20469;-80
2021/08/01 01:07:08;;;;;;;3.85;2.55;;;19.00;62.50;;;;;;5045799;28;20057;-78
2021/08/01 01:10:00;;;;;;;3.30;2.17;;;19.00;62.60;;;;;;5061919;28;20049;-79
2021/08/01 01:12:49;;;;;;;3.92;2.63;;;19.00;62.60;;;;;;5068956;28;20488;-78
2021/08/01 01:15:25;;;;;;;3.38;2.00;;;19.00;62.60;;;;;;5068004;28;20074;-79
2021/08/01 01:17:54;;;;;;;4.07;2.10;;;18.90;62.50;;;;;;5068815;28;20286;-78
2021/08/01 01:20:55;;;;;;;3.60;2.35;;;18.90;62.60;;;;;;5071596;28;20357;-79
2021/08/01 01:23:27;;;;;;;3.75;2.30;;;18.80;62.50;;;;;;5051055;28;20507;-79
2021/08/01 01:26:34;;;;;;;2.35;2.10;;;18.80;62.50;;;;;;5068410;28;20024;-78
2021/08/01 01:29:12;;;;;;;4.53;2.38;;;18.80;62.60;;;;;;5039103;28;20066;-78
2021/08/01 01:31:53;;;;;;;4.03;2.40;;;18.70;62.50;;;;;;5059685;28;20099;-79
2021/08/01 01:34:39;;;;;;;3.35;2.25;;;18.70;62.60;;;;;;5050114;28;20473;-79
2021/08/01 01:37:08;;;;;;;4.07;2.58;;;18.60;62.50;;;;;;5074937;28;20112;-78
2021/08/01 01:39:40;;;;;;;3.15;2.08;;;18.60;62.60;;;;;;5070385;28;20055;-78
2021/08/01 01:42:38;;;;;;;3.33;2.42;;;18.60;62.70;;;;;;5065501;28;20436;-79
2021/08/01 01:45:05;;;;;;;2.60;2.28;;;18.50;62.50;;;;;;5085692;28;20472;-78
2021/08/01 01:47:35;;;;;;;3.08;2.15;;;18.50;62.60;;;;;;5056289;28;20029;-79
2021/08/01 01:50:03;;;;;;;3.97;2.10;;;18.40;62.60;;;;;;5066134;28;20040;-79
2021/08/01 01:52:30;;;;;;;3.35;2.13;;;18.40;62.60;;;;;;5083781;28;20480;-79
2021/08/01 01:55:10;;;;;;;3.45;2.65;;;18.40;62.70;;;;;;5094503;28;20032;-79
2021/08/01 01:57:42;;;;;;;4.65;2.60;;;18.30;62.60;;;;;;5075510;28;20024;-80
2021/08/01 02:00:09;;;;;;;3.85;2.47;;;18.30;62.70;;;;;;5077413;28;20033;-79
2021/08/01 02:02:44;;;;;;;2.90;2.38;;;18.20;62.60;;;;;;5082549;28;20033;-79
2021/08/01 02:05:20;;;;;;;2.88;2.03;;;18.20;62.70;;;;;;5082776;28;20017;-80
2021/08/01 02:07:54;;;;;;;3.22;2.83;;;18.20;62.70;;;;;;5075489;28;20538;-78
2021/08/01 02:10:45;;;;;;;2.90;2.30;;;18.10;62.70;;;;;;5075341;28;20032;-80
2021/08/01 02:13:17;;;;;;;2.45;2.20;;;18.10;62.70;;;;;;5066208;28;20543;-79
2021/08/01 02:15:50;;;;;;;3.38;2.20;;;18.00;62.60;;;;;;5061910;28;20040;-79
2021/08/01 02:18:30;;;;;;;7.15;2.53;;;18.00;62.70;;;;;;5078863;28;20557;-79
2021/08/01 02:20:57;;;;;;;4.15;2.20;;;18.00;62.80;;;;;;5077512;28;20051;-79
2021/08/01 02:23:41;;;;;;;4.45;2.53;;;17.90;62.60;;;;;;5063197;28;20033;-79
2021/08/01 02:26:12;;;;;;;5.13;2.75;;;17.90;62.80;;;;;;5061628;28;20036;-80
2021/08/01 02:28:40;;;;;;;3.17;2.33;;;17.90;62.80;;;;;;5074539;28;20020;-78
2021/08/01 02:31:07;;;;;;;4.05;2.60;;;17.80;62.70;;;;;;5059125;28;20542;-79
2021/08/01 02:33:35;;;;;;;3.05;2.60;;;17.80;62.80;;;;;;5060615;28;20146;-79
2021/08/01 02:36:12;;;;;;;2.97;2.67;;;17.80;62.90;;;;;;5061223;28;20032;-79
2021/08/01 02:38:44;;;;;;;2.92;2.35;;;17.70;62.80;;;;;;5056467;28;20171;-78
2021/08/01 02:41:26;;;;;;;4.45;2.95;;;17.70;62.80;;;;;;5070684;28;20492;-78
2021/08/01 02:43:52;;;;;;;2.72;2.47;;;17.70;63.50;;;;;;5053268;28;20037;-79
2021/08/01 02:46:22;;;;;;;3.90;2.58;;;17.70;62.90;;;;;;5054304;28;20029;-79
2021/08/01 02:48:49;;;;;;;4.57;2.42;;;17.60;62.80;;;;;;5054351;28;20124;-79
2021/08/01 02:51:16;;;;;;;3.42;2.50;;;17.60;62.90;;;;;;5069565;28;20033;-81
2021/08/01 02:53:47;;;;;;;3.60;2.47;;;17.60;62.90;;;;;;5053243;28;20575;-78
2021/08/01 02:56:19;;;;;;;3.22;2.30;;;17.60;63.10;;;;;;5069744;28;20422;-79
2021/08/01 02:58:50;;;;;;;3.88;2.60;;;17.50;62.90;;;;;;5069499;28;20068;-81
2021/08/01 03:01:16;;;;;;;4.45;2.45;;;17.50;62.90;;;;;;5054155;28;20539;-79
2021/08/01 03:03:43;;;;;;;3.50;2.75;;;17.50;62.90;;;;;;5069138;28;20374;-80
2021/08/01 03:06:10;;;;;;;5.80;2.78;;;17.40;62.80;;;;;;5060649;28;20526;-80
2021/08/01 03:08:37;;;;;;;3.10;2.47;;;17.40;62.90;;;;;;5076433;28;20052;-82
2021/08/01 03:11:02;;;;;;;3.83;2.80;;;17.40;63.00;;;;;;5070711;28;20076;-80
2021/08/01 03:13:29;;;;;;;3.00;2.70;;;17.40;63.10;;;;;;5053717;28;20044;-80
2021/08/01 03:15:56;;;;;;;2.58;2.38;;;17.30;62.90;;;;;;5069379;28;20389;-79
2021/08/01 03:18:22;;;;;;;4.00;2.83;;;17.30;63.00;;;;;;5070051;28;20481;-80
2021/08/01 03:20:48;;;;;;;4.53;2.50;;;17.30;63.00;;;;;;5069490;28;20076;-80
2021/08/01 03:23:40;;;;;;;3.53;2.60;;;17.30;63.00;;;;;;5052584;28;20124;-81
2021/08/01 03:26:33;;;;;;;3.17;2.63;;;17.30;63.00;;;;;;5069063;28;20112;-81
2021/08/01 03:28:59;;;;;;;3.13;2.30;;;17.30;63.10;;;;;;5052098;28;20021;-80
2021/08/01 03:31:26;;;;;;;2.58;2.38;;;17.20;63.00;;;;;;5068701;28;20103;-80
2021/08/01 03:33:51;;;;;;;3.35;2.47;;;17.20;63.00;;;;;;5052020;28;20036;-79
2021/08/01 03:36:23;;;;;;;3.78;2.60;;;17.20;63.10;;;;;;5068193;28;20464;-80
2021/08/01 03:39:08;;;;;;;3.65;2.60;;;17.20;63.10;;;;;;5052831;28;20036;-79
2021/08/01 03:41:39;;;;;;;4.30;2.70;;;17.20;63.20;;;;;;5051656;28;20396;-80
2021/08/01 03:44:09;;;;;;;3.13;2.38;;;17.20;63.20;;;;;;5053084;28;20029;-79
2021/08/01 03:46:35;;;;;;;3.40;2.50;;;17.20;63.30;;;;;;5051305;28;20480;-81
2021/08/01 03:49:01;;;;;;;3.97;2.58;;;17.20;63.30;;;;;;5052855;28;20036;-83
2021/08/01 03:51:27;;;;;;;3.55;2.78;;;17.20;63.30;;;;;;5052381;28;20065;-81
2021/08/01 03:53:53;;;;;;;2.83;2.50;;;17.20;63.30;;;;;;5067556;28;20506;-81
2021/08/01 03:56:19;;;;;;;4.15;2.40;;;17.10;63.20;;;;;;5051470;28;20117;-82
2021/08/01 03:58:45;;;;;;;4.10;2.58;;;17.20;63.40;;;;;;5052644;28;20116;-81
2021/08/01 04:01:16;;;;;;;2.53;2.20;;;17.20;63.50;;;;;;5051445;28;20040;-82
2021/08/01 04:03:43;;;;;;;2.83;2.20;;;17.20;63.60;;;;;;5067677;28;20035;-80
2021/08/01 04:06:08;;;;;;;3.13;2.42;;;17.10;63.40;;;;;;5052304;28;20033;-81
2021/08/01 04:08:34;;;;;;;2.75;2.33;;;17.20;63.60;;;;;;5052111;28;20653;-80
2021/08/01 04:11:04;;;;;;;3.50;2.83;;;17.10;63.40;;;;;;5052113;28;20655;-79
2021/08/01 04:13:31;;;;;;;4.28;2.38;;;17.20;63.60;;;;;;5052105;28;20029;-80
2021/08/01 04:15:57;;;;;;;3.25;2.58;;;17.10;63.40;;;;;;5051135;28;20072;-80
2021/08/01 04:18:23;;;;;;;3.38;2.92;;;17.10;63.50;;;;;;5051633;28;20033;-79
2021/08/01 04:20:49;;;;;;;2.58;2.38;;;17.10;63.50;;;;;;5051759;28;20049;-79
2021/08/01 04:23:15;;;;;;;4.85;2.67;;;17.10;63.60;;;;;;5050705;28;20081;-80
2021/08/01 04:25:41;;;;;;;2.83;2.60;;;17.10;63.60;;;;;;5051601;28;20033;-80
2021/08/01 04:28:07;;;;;;;5.30;2.90;;;17.10;63.60;;;;;;5051923;28;20029;-79
2021/08/01 04:30:33;;;;;;;3.88;2.58;;;17.10;63.60;;;;;;5067203;28;20167;-79
2021/08/01 04:32:58;;;;;;;6.13;3.20;;;17.10;63.70;;;;;;5051651;28;20044;-76
2021/08/01 04:35:24;;;;;;;4.88;2.90;;;17.10;63.70;;;;;;5051992;28;20048;-78
2021/08/01 04:37:50;;;;;;;2.67;2.47;;;17.10;63.70;;;;;;5051571;28;20036;-80
2021/08/01 04:40:16;;;;;;;4.72;2.97;;;17.10;63.70;;;;;;5066753;28;20029;-80
2021/08/01 04:42:42;;;;;;;4.13;2.63;;;17.20;64.00;;;;;;5051449;28;20591;-82
2021/08/01 04:45:09;;;;;;;3.22;2.53;;;17.10;63.80;;;;;;5051428;28;20041;-78
2021/08/01 04:47:35;;;;;;;4.03;2.80;;;17.10;63.80;;;;;;5053435;28;20035;-79
2021/08/01 04:50:01;;;;;;;4.80;2.95;;;17.20;64.00;;;;;;5060301;28;20020;-80
2021/08/01 04:52:27;;;;;;;4.32;2.63;;;17.10;63.90;;;;;;5054928;28;20503;-80
2021/08/01 04:54:53;;;;;;;4.82;2.90;;;17.20;64.10;;;;;;5061679;28;20389;-81
2021/08/01 04:57:19;;;;;;;4.07;2.53;;;17.10;63.90;;;;;;5068238;28;20089;-80
2021/08/01 04:59:45;;;;;;;3.03;2.47;;;17.20;64.10;;;;;;5068107;28;20406;-79
2021/08/01 05:02:11;;;;;;;4.75;2.95;;;17.10;63.90;;;;;;5065786;28;20044;-80
2021/08/01 05:04:37;;;;;;;2.95;2.65;;;17.10;63.90;;;;;;5066162;28;20031;-81
2021/08/01 05:07:03;;;;;;;4.35;2.50;;;17.10;64.50;;;;;;5065862;28;20036;-80
2021/08/01 05:09:29;;;;;;;4.38;2.60;;;17.20;64.10;;;;;;5065002;28;20055;-81
2021/08/01 05:11:55;;;;;;;5.32;2.95;;;17.20;64.20;;;;;;5060370;28;20025;-80
2021/08/01 05:14:21;;;;;;;3.45;2.05;;;17.20;64.20;;;;;;5054833;28;20043;-81
2021/08/01 05:16:47;;;;;;;4.57;2.80;;;17.20;64.20;;;;;;5046532;28;20487;-80
2021/08/01 05:19:13;;;;;;;4.55;2.88;;;17.10;64.00;;;;;;5062005;28;20103;-82
2021/08/01 05:21:38;;;;;;;3.40;2.88;;;17.20;64.20;;;;;;5066410;28;20062;-80
2021/08/01 05:24:05;;;;;;;3.67;2.72;;;17.20;64.20;;;;;;5065872;28;20495;-80
2021/08/01 05:26:31;;;;;;;4.28;2.90;;;17.20;64.20;;;;;;5066773;28;20391;-82
2021/08/01 05:28:57;;;;;;;5.65;2.90;;;17.20;64.60;;;;;;5066071;28;20119;-81
2021/08/01 05:31:23;;;;;;;3.72;2.70;;;17.20;64.20;;;;;;5064629;28;20029;-80
2021/08/01 05:33:48;;;;;;;5.03;2.67;;;17.30;64.50;;;;;;5066607;28;20029;-81
2021/08/01 05:36:14;;;;;;;4.68;2.97;;;17.30;64.50;;;;;;5065170;28;20550;-78
2021/08/01 05:38:40;;;;;;;2.97;2.30;;;17.30;64.40;;;;;;5065954;28;20111;-79
2021/08/01 05:41:06;;;;;;;5.10;2.83;;;17.30;64.40;;;;;;5064917;28;20040;-81
2021/08/01 05:43:34;;;;;;;2.97;2.60;;;17.30;64.50;;;;;;5047869;28;20021;-82
2021/08/01 05:46:00;;;;;;;3.25;2.60;;;17.30;64.50;;;;;;5066716;28;20525;-79
2021/08/01 05:48:26;;;;;;;4.25;2.97;;;17.30;64.50;;;;;;5066126;28;20348;-81
2021/08/01 05:50:52;;;;;;;4.47;2.90;;;17.40;64.70;;;;;;5052760;28;20128;-80
2021/08/01 05:53:21;;;;;;;3.38;2.80;;;17.40;64.60;;;;;;5060307;28;20116;-79
2021/08/01 05:55:48;;;;;;;4.35;3.00;;;17.40;64.60;;;;;;5045372;28;20132;-80
2021/08/01 05:58:14;;;;;;;3.25;2.90;;;17.50;64.80;;;;;;5054705;28;20028;-79
2021/08/01 06:00:40;;;;;;;5.43;2.97;;;17.50;64.70;;;;;;5065538;28;20039;-78
2021/08/01 06:03:06;;;;;;;4.97;3.25;;;17.50;64.80;;;;;;5064612;28;20325;-79
2021/08/01 06:05:32;;;;;;;3.92;2.80;;;17.50;64.80;;;;;;5062265;28;20417;-81
2021/08/01 06:07:58;;;;;;;3.30;2.92;;;17.50;64.80;;;;;;5053832;28;20159;-81
2021/08/01 06:10:24;;;;;;;4.53;3.67;;;17.60;65.00;;;;;;5053144;28;20095;-82
2021/08/01 06:12:50;;;;;;;3.55;3.17;;;17.60;65.00;;;;;;5054480;28;20021;-82
2021/08/01 06:15:16;;;;;;;3.63;3.33;;;17.60;65.00;;;;;;5062614;28;20040;-81
2021/08/01 06:17:42;;;;;;;3.78;3.47;;;17.70;65.20;;;;;;5064861;28;20484;-80
2021/08/01 06:20:11;;;;;;;3.85;3.05;;;17.70;65.10;;;;;;5066210;28;20064;-84
2021/08/01 06:22:37;;;;;;;3.50;3.20;;;17.70;65.10;;;;;;5064169;28;20033;-83
2021/08/01 06:25:03;;;;;;;3.60;3.00;;;17.80;65.20;;;;;;5053693;28;20028;-82
2021/08/01 06:27:29;;;;;;;4.10;3.70;;;17.80;65.20;;;;;;5058494;28;20370;-87
2021/08/01 06:29:55;;;;;;;3.90;3.28;;;17.70;65.00;;;;;;5065822;28;20039;-81
2021/08/01 06:32:21;;;;;;;4.97;3.80;;;17.80;65.10;;;;;;5066278;28;20024;-81
2021/08/01 06:34:47;;;;;;;3.60;3.13;;;17.80;65.10;;;;;;5065725;28;20396;-82
2021/08/01 06:37:13;;;;;;;3.50;3.17;;;17.80;65.10;;;;;;5066032;28;20426;-81
2021/08/01 06:39:43;;;;;;;4.88;3.20;;;17.90;65.30;;;;;;5076138;28;20476;-81
2021/08/01 06:42:09;;;;;;;4.95;3.45;;;17.80;65.20;;;;;;5074487;28;20036;-80
2021/08/01 06:44:35;;;;;;;4.82;3.08;;;17.90;65.30;;;;;;5057280;28;20153;-79
2021/08/01 06:47:01;;;;;;;3.60;3.25;;;17.90;65.30;;;;;;5081470;28;20129;-83
2021/08/01 06:49:27;;;;;;;4.72;3.70;;;17.90;65.30;;;;;;5060061;28;20035;-80
2021/08/01 06:51:53;;;;;;;3.60;3.22;;;17.90;65.40;;;;;;5062804;28;20043;-82
2021/08/01 06:54:19;;;;;;;4.60;3.70;;;17.90;65.50;;;;;;5064987;28;20021;-83
2021/08/01 06:56:45;;;;;;;3.88;3.33;;;18.00;65.80;;;;;;5051833;28;20033;-80
2021/08/01 06:59:11;;;;;;;4.35;3.92;;;18.00;65.80;;;;;;5058958;28;20036;-81
2021/08/01 07:01:38;;;;;;;5.13;3.35;;;18.00;65.80;;;;;;5058113;28;20039;-83
2021/08/01 07:04:05;;;;;;;4.15;3.78;;;18.00;65.80;;;;;;5059876;28;20029;-80
2021/08/01 07:06:31;;;;;;;3.88;3.47;;;18.10;66.00;;;;;;5056625;28;20471;-79
2021/08/01 07:08:56;;;;;;;4.05;3.65;;;18.10;66.00;;;;;;5061553;28;20052;-80
2021/08/01 07:11:22;;;;;;;3.83;3.22;;;18.10;66.00;;;;;;5066986;28;20028;-77
2021/08/01 07:13:48;;;;;;;4.03;3.63;;;18.10;66.00;;;;;;5065471;28;20028;-81
2021/08/01 07:16:14;;;;;;;4.38;3.92;;;18.10;66.00;;;;;;5067079;28;20123;-80
2021/08/01 07:18:40;;;;;;;4.40;4.00;;;18.20;66.20;;;;;;5066603;28;20056;-81
2021/08/01 07:21:06;;;;;;;3.97;3.67;;;18.30;66.30;;;;;;5065593;28;20036;-77
2021/08/01 07:23:32;;;;;;;4.70;4.30;;;18.40;66.30;;;;;;5055400;28;20029;-79
2021/08/01 07:25:58;;;;;;;5.88;4.50;;;18.40;66.20;;;;;;5046746;28;20628;-79
2021/08/01 07:28:24;;;;;;;6.63;4.38;;;18.40;66.20;;;;;;5058262;28;20040;-80
2021/08/01 07:30:52;;;;;;;4.40;3.97;;;18.50;66.30;;;;;;5068333;28;20135;-80
2021/08/01 07:33:19;;;;;;;5.07;4.00;;;18.50;66.30;;;;;;5066897;28;20039;-79
2021/08/01 07:35:46;;;;;;;4.95;4.45;;;18.50;66.30;;;;;;5068092;28;20472;-78
2021/08/01 07:38:12;;;;;;;4.47;4.07;;;18.60;66.40;;;;;;5068153;28;20036;-80
2021/08/01 07:40:38;;;;;;;6.82;3.97;;;18.70;66.60;;;;;;5067815;28;20498;-78
2021/08/01 07:43:04;;;;;;;4.60;4.20;;;18.80;66.70;;;;;;5067599;28;20032;-79
2021/08/01 07:45:32;;;;;;;5.88;3.92;;;18.80;66.60;;;;;;5050376;28;20044;-80
2021/08/01 07:47:58;;;;;;;4.80;4.05;;;19.00;66.90;;;;;;5068134;28;20066;-78
2021/08/01 07:50:25;;;;;;;4.82;4.28;;;19.10;66.90;;;;;;5068239;28;20079;-80
2021/08/01 07:52:51;;;;;;;4.20;3.90;;;19.20;66.90;;;;;;5067488;28;20037;-78
2021/08/01 07:55:17;;;;;;;6.35;4.63;;;19.30;66.90;;;;;;5067683;28;20025;-79
2021/08/01 07:57:44;;;;;;;4.68;4.18;;;19.40;66.90;;;;;;5066893;28;20040;-79
2021/08/01 08:00:12;;;;;;;4.43;3.97;;;19.60;67.10;;;;;;5067120;28;20115;-79
2021/08/01 08:02:45;;;;;;;5.07;4.57;;;19.60;66.90;;;;;;5067349;28;20036;-79
2021/08/01 08:05:12;;;;;;;4.30;3.88;;;19.70;66.90;;;;;;5066808;28;20028;-80
2021/08/01 08:07:38;;;;;;;5.40;4.80;;;19.70;66.90;;;;;;5067356;28;20036;-79
2021/08/01 08:10:05;;;;;;;5.03;3.97;;;19.70;66.80;;;;;;5067575;28;20267;-79
2021/08/01 08:12:32;;;;;;;4.82;4.07;;;19.80;67.00;;;;;;5066213;28;20024;-79
2021/08/01 08:14:58;;;;;;;5.00;4.60;;;19.80;66.90;;;;;;5067359;28;20052;-80
2021/08/01 08:17:24;;;;;;;4.85;4.35;;;19.80;66.90;;;;;;5066423;28;20036;-79
2021/08/01 08:19:50;;;;;;;6.05;4.55;;;19.80;66.90;;;;;;5067152;28;20031;-79
2021/08/01 08:22:16;;;;;;;4.78;4.03;;;19.80;66.80;;;;;;5067013;28;20123;-79
2021/08/01 08:24:43;;;;;;;4.47;4.07;;;19.70;66.60;;;;;;5064926;28;20031;-79
2021/08/01 08:27:09;;;;;;;4.72;4.32;;;19.70;66.70;;;;;;5077603;28;20452;-80
2021/08/01 08:29:35;;;;;;;4.95;4.50;;;19.80;66.90;;;;;;5080863;28;20460;-79
2021/08/01 08:32:01;;;;;;;5.43;4.63;;;19.80;66.80;;;;;;5065913;28;20063;-80
2021/08/01 08:34:27;;;;;;;4.07;3.63;;;19.80;66.80;;;;;;5064968;28;20028;-79
2021/08/01 08:36:54;;;;;;;4.50;4.10;;;19.80;66.80;;;;;;5045678;28;20139;-80
2021/08/01 08:39:22;;;;;;;5.18;4.15;;;19.80;66.70;;;;;;5079077;28;20024;-80
2021/08/01 08:41:49;;;;;;;9.88;4.05;;;19.80;66.70;;;;;;5066852;28;20051;-80
2021/08/01 08:44:16;;;;;;;4.50;4.10;;;19.90;66.80;;;;;;5066219;28;20035;-79
2021/08/01 08:46:42;;;;;;;5.68;4.47;;;19.90;66.80;;;;;;5065814;28;20040;-80
2021/08/01 08:49:12;;;;;;;4.25;3.80;;;19.90;66.70;;;;;;5065887;28;20469;-80
2021/08/01 08:51:41;;;;;;;4.10;3.70;;;19.90;66.70;;;;;;5065245;28;20119;-80
2021/08/01 08:54:26;;;;;;;5.90;4.25;;;19.90;66.70;;;;;;5066529;28;20054;-80
2021/08/01 08:56:55;;;;;;;4.28;3.70;;;19.90;66.70;;;;;;5066813;28;20546;-79
2021/08/01 08:59:22;;;;;;;3.92;3.30;;;19.90;66.70;;;;;;5066547;28;20028;-80
2021/08/01 09:01:48;;;;;;;4.38;3.97;;;19.80;66.50;;;;;;5064915;28;20558;-79
2021/08/01 09:04:15;;;;;;;3.85;3.45;;;19.90;66.70;;;;;;5066605;28;20380;-79
2021/08/01 09:06:42;;;;;;;4.65;3.58;;;19.90;66.70;;;;;;5066896;28;20036;-78
2021/08/01 09:09:10;;;;;;;3.45;2.67;;;19.90;66.70;;;;;;5065960;28;20352;-80
2021/08/01 09:11:36;;;;;;;4.05;2.67;;;19.90;66.90;;;;;;5056964;28;20043;-82
2021/08/01 09:14:04;;;;;;;3.17;2.30;;;19.90;67.30;;;;;;5074721;28;20369;-80
2021/08/01 09:16:48;;;;;;;4.32;2.80;;;19.90;67.50;;;;;;5046544;28;20257;-78
2021/08/01 09:19:26;;;;;;;7.47;4.40;;;19.90;68.00;;;;;;5060704;28;20496;-78
2021/08/01 09:21:52;;;;;;;8.68;4.78;;;20.00;68.50;;;;;;5066386;28;20092;-79
2021/08/01 09:24:19;;;;;;;8.52;4.13;;;20.00;68.60;;;;;;5065522;28;20487;-80
2021/08/01 09:26:47;;;;;;;4.88;3.78;;;20.10;68.90;;;;;;5065672;28;20031;-80
2021/08/01 09:29:15;;;;;;;5.05;3.63;;;20.10;69.00;;;;;;5064867;28;20165;-77
2021/08/01 09:31:42;;;;;;;4.32;3.33;;;20.20;69.20;;;;;;5064442;28;20039;-78
2021/08/01 09:34:21;;;;;;;3.75;3.42;;;20.30;69.30;;;;;;5065734;28;20024;-78
2021/08/01 09:37:04;;;;;;;3.95;3.50;;;20.40;69.50;;;;;;5066104;28;20043;-78
2021/08/01 09:39:41;;;;;;;4.13;3.00;;;20.60;69.70;;;;;;5065031;28;20021;-79
2021/08/01 09:42:09;;;;;;;3.90;3.30;;;20.70;69.60;;;;;;5065073;28;20040;-79
2021/08/01 09:44:39;;;;;;;5.38;3.17;;;20.90;69.80;;;;;;5046269;28;20025;-78
2021/08/01 09:47:06;;;;;;;5.63;3.40;;;21.10;70.10;;;;;;5055728;28;20036;-78
2021/08/01 09:49:33;;;;;;;3.92;3.58;;;21.30;70.10;;;;;;5065713;28;20530;-77
2021/08/01 09:52:03;;;;;;;4.78;3.22;;;21.70;70.40;;;;;;5066104;28;20060;-77
2021/08/01 09:54:46;;;;;;;3.10;2.80;;;22.00;70.30;;;;;;5065629;28;20128;-79
2021/08/01 09:57:20;;;;;;;3.00;2.70;;;22.20;70.10;;;;;;5065804;28;20480;-78
2021/08/01 10:00:02;;;;;;;5.75;3.10;;;22.40;69.90;;;;;;5064639;28;20285;-78
2021/08/01 10:02:40;;;;;;;3.10;2.78;;;22.60;69.90;;;;;;5065280;28;20032;-79
2021/08/01 10:05:20;;;;;;;4.50;3.05;;;22.70;69.80;;;;;;5064421;28;20043;-79
2021/08/01 10:07:51;;;;;;;4.72;3.10;;;22.80;69.80;;;;;;5065770;28;20036;-79
2021/08/01 10:10:21;;;;;;;3.60;2.95;;;23.00;69.90;;;;;;5064812;28;20047;-79
2021/08/01 10:12:52;;;;;;;2.97;2.28;;;23.20;69.90;;;;;;5064615;28;20415;-78
2021/08/01 10:15:20;;;;;;;4.25;2.55;;;23.30;69.80;;;;;;5065604;28;20028;-79
2021/08/01 10:17:46;;;;;;;5.65;2.78;;;23.50;69.90;;;;;;5065555;28;20476;-79
2021/08/01 10:20:12;;;;;;;3.15;2.40;;;23.60;69.80;;;;;;5064833;28;20500;-80
2021/08/01 10:22:42;;;;;;;3.33;2.45;;;23.90;70.00;;;;;;5067607;28;20128;-80
2021/08/01 10:25:10;;;;;;;2.92;2.10;;;24.10;69.80;;;;;;5067968;28;20431;-80
2021/08/01 10:27:44;;;;;;;2.67;2.25;;;24.30;69.70;;;;;;5069274;28;20067;-78
2021/08/01 10:30:17;;;;;;;3.22;2.58;;;24.50;69.60;;;;;;5068550;28;20037;-80
2021/08/01 10:32:45;;;;;;;2.85;2.13;;;24.70;69.50;;;;;;5069185;28;20535;-78
2021/08/01 10:35:21;;;;;;;3.45;2.40;;;24.90;69.40;;;;;;5069139;28;20514;-79
2021/08/01 10:38:00;;;;;;;2.58;2.08;;;25.00;69.20;;;;;;5068758;28;20028;-80
2021/08/01 10:40:29;;;;;;;2.92;2.60;;;25.10;68.80;;;;;;5068915;28;20097;-80
2021/08/01 10:43:10;;;;;;;2.33;2.13;;;25.20;68.50;;;;;;5068889;28;20040;-80
2021/08/01 10:45:43;;;;;;;2.92;2.22;;;25.10;68.20;;;;;;5067629;28;20044;-80
2021/08/01 10:48:11;;;;;;;2.97;2.38;;;25.10;68.10;;;;;;5068855;28;20123;-80
2021/08/01 10:50:39;;;;;;;2.72;2.22;;;25.00;68.10;;;;;;5068987;28;20102;-81
2021/08/01 10:53:21;;;;;;;2.33;2.13;;;24.80;67.80;;;;;;5067908;28;20032;-81
2021/08/01 10:55:48;;;;;;;2.88;2.40;;;24.60;67.50;;;;;;5067775;28;20040;-81
2021/08/01 10:58:16;;;;;;;2.50;2.30;;;24.50;67.50;;;;;;5069689;28;20059;-82
2021/08/01 11:00:57;;;;;;;1.95;1.80;;;24.30;67.20;;;;;;5067535;28;20028;-81
2021/08/01 11:03:24;;;;;;;2.40;2.03;;;24.20;67.20;;;;;;5067819;28;20119;-80
2021/08/01 11:05:50;;;;;;;2.33;2.03;;;24.00;67.00;;;;;;5069599;28;20028;-81
2021/08/01 11:08:16;;;;;;;2.35;2.15;;;24.00;67.10;;;;;;5067941;28;20101;-80
2021/08/01 11:10:43;;;;;;;3.08;2.38;;;23.90;67.00;;;;;;5067296;28;20113;-81
2021/08/01 11:13:30;;;;;;;4.60;2.17;;;23.80;66.90;;;;;;5068261;28;20468;-83
2021/08/01 11:15:56;;;;;;;2.22;2.03;;;23.70;66.80;;;;;;5069072;28;20044;-83
2021/08/01 11:18:52;;;;;;;2.70;2.33;;;23.70;66.80;;;;;;5067770;28;20101;-82
2021/08/01 11:21:38;;;;;;;3.28;2.15;;;23.60;66.70;;;;;;5061405;28;20051;-82
2021/08/01 11:24:06;;;;;;;3.20;2.20;;;23.60;66.60;;;;;;5068960;28;20427;-79
2021/08/01 11:26:33;;;;;;;2.40;2.08;;;23.60;66.60;;;;;;5068590;28;20127;-80
2021/08/01 11:29:12;;;;;;;2.13;1.92;;;23.60;66.60;;;;;;5068486;28;20024;-81
2021/08/01 11:31:39;;;;;;;2.20;2.00;;;23.70;66.70;;;;;;5067748;28;20028;-79
2021/08/01 11:34:31;;;;;;;2.40;2.20;;;23.80;66.80;;;;;;5067389;28;20078;-80
2021/08/01 11:37:19;;;;;;;1.98;1.85;;;23.80;66.60;;;;;;5065870;28;20047;-79
2021/08/01 11:40:04;;;;;;;2.13;1.92;;;23.80;66.50;;;;;;5048534;28;20037;-79
2021/08/01 11:42:31;;;;;;;2.92;2.15;;;23.90;66.60;;;;;;5050143;28;20678;-82
2021/08/01 11:44:59;;;;;;;2.55;2.35;;;23.90;66.50;;;;;;5054952;28;20025;-80
2021/08/01 11:47:26;;;;;;;4.32;2.47;;;23.90;66.40;;;;;;5052913;28;20028;-79
2021/08/01 11:49:53;;;;;;;1.85;1.75;;;23.90;66.40;;;;;;5067347;28;20037;-80
2021/08/01 11:52:34;;;;;;;2.97;2.20;;;23.90;66.30;;;;;;5068041;28;20070;-80
2021/08/01 11:55:00;;;;;;;2.42;2.22;;;24.00;66.50;;;;;;5050109;28;20036;-80
2021/08/01 11:57:29;;;;;;;2.40;2.20;;;24.10;66.60;;;;;;5064936;28;20052;-81
2021/08/01 11:59:56;;;;;;;2.78;2.47;;;24.20;66.70;;;;;;5049558;28;20480;-80
2021/08/01 12:02:22;;;;;;;3.15;2.55;;;24.50;66.90;;;;;;5052052;28;20390;-79
2021/08/01 12:04:56;;;;;;;3.25;2.60;;;24.80;66.80;;;;;;5067530;28;20030;-80
2021/08/01 12:07:38;;;;;;;3.15;2.13;;;25.00;66.60;;;;;;5067593;28;20476;-80
2021/08/01 12:10:24;;;;;;;2.50;2.30;;;25.20;66.40;;;;;;5067679;28;20424;-81
2021/08/01 12:12:52;;;;;;;2.20;2.00;;;25.40;66.10;;;;;;5067157;28;20036;-81
2021/08/01 12:15:20;;;;;;;2.60;2.40;;;25.60;65.90;;;;;;5067647;28;20039;-81
2021/08/01 12:17:46;;;;;;;3.13;2.45;;;25.70;65.60;;;;;;5067435;28;20113;-83
2021/08/01 12:20:12;;;;;;;2.75;2.17;;;25.80;65.50;;;;;;5083398;28;20116;-80
2021/08/01 12:22:44;;;;;;;2.70;2.03;;;25.80;65.40;;;;;;5067119;28;20433;-80
2021/08/01 12:25:11;;;;;;;2.88;2.25;;;25.80;65.30;;;;;;5066010;28;20039;-82
2021/08/01 12:27:37;;;;;;;4.43;2.20;;;25.90;65.30;;;;;;5067271;28;20032;-81
2021/08/01 12:30:07;;;;;;;3.08;2.17;;;26.00;65.10;;;;;;5067302;28;20090;-80
2021/08/01 12:32:42;;;;;;;3.78;2.33;;;26.00;65.00;;;;;;5067530;28;20101;-81
2021/08/01 12:35:23;;;;;;;2.00;1.80;;;26.20;65.00;;;;;;5067387;28;20119;-81
2021/08/01 12:38:03;;;;;;;3.88;2.05;;;26.40;64.70;;;;;;5066030;28;20032;-81
2021/08/01 12:40:43;;;;;;;2.28;2.03;;;26.60;64.30;;;;;;5066647;28;20028;-83
2021/08/01 12:43:16;;;;;;;2.08;1.88;;;26.70;64.00;;;;;;5067710;28;20032;-82
2021/08/01 12:45:43;;;;;;;2.20;1.80;;;26.80;63.90;;;;;;5068159;28;20476;-85
2021/08/01 12:48:25;;;;;;;1.92;1.70;;;26.80;64.00;;;;;;5062083;28;20047;-84
2021/08/01 12:50:55;;;;;;;1.90;1.80;;;26.80;63.80;;;;;;5046124;28;20025;-85
2021/08/01 12:53:23;;;;;;;2.13;1.80;;;27.00;63.80;;;;;;5056416;28;20055;-84
2021/08/01 12:55:59;;;;;;;2.25;1.70;;;27.10;63.50;;;;;;5049576;28;20020;-85
2021/08/01 12:58:41;;;;;;;1.90;1.75;;;27.30;63.20;;;;;;5066359;28;20036;-83
2021/08/01 13:01:09;;;;;;;2.08;1.67;;;27.40;63.00;;;;;;5066998;28;20036;-80